Impacts METAR Board INFO
IDs:

KIAH - Houston/Bush Intl, TX, US

Updated at: 0222 UTC 11 Dec 2017
Potential Impact None Slight Moderate High
Time10/14Z 10/15Z 10/16Z 10/17Z 10/18Z 10/19Z 10/20Z 10/21Z 10/22Z 10/23Z 11/00Z 11/01Z 11/02Z
VIS10 10 10 10 10 10 10 10 10 10 10 10 10
CIG-- -- -- -- -- -- 250 -- 250 250 -- -- --
CoverFEWFEWFEWSCTSCTSCTBKNSCTBKNBKNFEWFEWFEW
FltCatVFRVFRVFRVFRVFRVFRVFRVFRVFRVFRVFRVFRVFR
WX--------------------------
WDir00002602500250300250220240230
WSpd0 0 0 0 5 5 6 5 6 5 3 3 3
WGst-- -- -- -- -- -- -- -- -- -- -- -- --
Raw hourly METARs
KIAH 101353Z 00000KT 10SM FEW250 02/02 A3043 RMK AO2 SLP306 T00220017
KIAH 101453Z 00000KT 10SM FEW250 08/03 A3045 RMK AO2 SLP311 T00830028 51019
KIAH 101553Z 00000KT 10SM FEW250 11/02 A3046 RMK AO2 SLP314 T01110022
KIAH 101653Z 00000KT 10SM SCT250 14/M01 A3046 RMK AO2 SLP314 T01391006
KIAH 101753Z 26005KT 10SM SCT250 16/M01 A3043 RMK AO2 SLP305 T01561011 10161 20017 58005
KIAH 101853Z 25005KT 10SM SCT250 17/M01 A3040 RMK AO2 SLP296 T01671011
KIAH 101953Z VRB06KT 10SM BKN250 17/M01 A3038 RMK AO2 SLP288 T01721006
KIAH 102053Z 25005KT 10SM SCT250 18/M01 A3037 RMK AO2 SLP285 T01781006 56020
KIAH 102153Z 30006KT 10SM BKN250 17/00 A3036 RMK AO2 SLP283 T01720000
KIAH 102253Z 25005KT 10SM BKN250 17/01 A3037 RMK AO2 SLP284 T01670006
KIAH 102353Z 22003KT 10SM FEW250 13/02 A3036 RMK AO2 SLP282 T01280022 10183 20117 56003
KIAH 110053Z 24003KT 10SM FEW250 09/03 A3038 RMK AO2 SLP287 T00940033
KIAH 110153Z 23003KT 10SM FEW250 08/04 A3037 RMK AO2 SLP285 T00830044